sensor_id;sensor_type;location;lat;lon;timestamp;temperature;humidity
16479;DHT22;8350;52.316;10.530;2023-09-19T00:02:04;16.10;99.90
16479;DHT22;8350;52.316;10.530;2023-09-19T00:04:33;16.10;99.90
16479;DHT22;8350;52.316;10.530;2023-09-19T00:07:00;16.00;99.90
16479;DHT22;8350;52.316;10.530;2023-09-19T00:09:29;16.00;99.90
16479;DHT22;8350;52.316;10.530;2023-09-19T00:11:56;15.90;99.90
16479;DHT22;8350;52.316;10.530;2023-09-19T00:14:25;15.90;99.90
16479;DHT22;8350;52.316;10.530;2023-09-19T00:16:52;15.90;99.90
16479;DHT22;8350;52.316;10.530;2023-09-19T00:19:20;15.80;99.90
16479;DHT22;8350;52.316;10.530;2023-09-19T00:21:48;15.80;99.90
16479;DHT22;8350;52.316;10.530;2023-09-19T00:24:15;15.80;99.90
16479;DHT22;8350;52.316;10.530;2023-09-19T00:26:43;15.80;99.90
16479;DHT22;8350;52.316;10.530;2023-09-19T00:29:12;15.80;99.90
16479;DHT22;8350;52.316;10.530;2023-09-19T00:31:43;15.80;99.90
16479;DHT22;8350;52.316;10.530;2023-09-19T00:34:10;15.80;99.90
16479;DHT22;8350;52.316;10.530;2023-09-19T00:36:37;15.80;99.90
16479;DHT22;8350;52.316;10.530;2023-09-19T00:39:06;15.70;99.90
16479;DHT22;8350;52.316;10.530;2023-09-19T00:41:34;15.70;99.90
16479;DHT22;8350;52.316;10.530;2023-09-19T00:44:02;15.60;99.90
16479;DHT22;8350;52.316;10.530;2023-09-19T00:46:31;15.60;99.90
16479;DHT22;8350;52.316;10.530;2023-09-19T00:48:59;15.70;99.90
16479;DHT22;8350;52.316;10.530;2023-09-19T00:51:26;15.60;99.90
16479;DHT22;8350;52.316;10.530;2023-09-19T00:53:55;15.60;99.90
16479;DHT22;8350;52.316;10.530;2023-09-19T00:56:25;15.60;99.90
16479;DHT22;8350;52.316;10.530;2023-09-19T00:58:52;15.50;99.90
16479;DHT22;8350;52.316;10.530;2023-09-19T01:01:20;15.60;99.90
16479;DHT22;8350;52.316;10.530;2023-09-19T01:03:47;15.60;99.90
16479;DHT22;8350;52.316;10.530;2023-09-19T01:06:14;15.50;99.90
16479;DHT22;8350;52.316;10.530;2023-09-19T01:08:41;15.50;99.90
16479;DHT22;8350;52.316;10.530;2023-09-19T01:11:14;15.50;99.90
16479;DHT22;8350;52.316;10.530;2023-09-19T01:13:51;15.50;99.90
16479;DHT22;8350;52.316;10.530;2023-09-19T01:16:32;15.50;99.90
16479;DHT22;8350;52.316;10.530;2023-09-19T01:19:11;15.40;99.90
16479;DHT22;8350;52.316;10.530;2023-09-19T01:21:44;15.40;99.90
16479;DHT22;8350;52.316;10.530;2023-09-19T01:27:30;15.40;99.90
16479;DHT22;8350;52.316;10.530;2023-09-19T01:30:17;15.40;99.90
16479;DHT22;8350;52.316;10.530;2023-09-19T01:32:45;15.40;99.90
16479;DHT22;8350;52.316;10.530;2023-09-19T01:35:12;15.40;99.90
16479;DHT22;8350;52.316;10.530;2023-09-19T01:37:39;15.30;99.90
16479;DHT22;8350;52.316;10.530;2023-09-19T01:40:11;15.30;99.90
16479;DHT22;8350;52.316;10.530;2023-09-19T01:42:48;15.30;99.90
16479;DHT22;8350;52.316;10.530;2023-09-19T01:45:26;15.20;99.90
16479;DHT22;8350;52.316;10.530;2023-09-19T01:48:02;15.20;99.90
16479;DHT22;8350;52.316;10.530;2023-09-19T01:50:36;15.30;99.90
16479;DHT22;8350;52.316;10.530;2023-09-19T01:53:13;15.30;99.90
16479;DHT22;8350;52.316;10.530;2023-09-19T01:55:46;15.20;99.90
16479;DHT22;8350;52.316;10.530;2023-09-19T01:58:20;15.20;99.90
16479;DHT22;8350;52.316;10.530;2023-09-19T02:00:52;15.20;99.90
16479;DHT22;8350;52.316;10.530;2023-09-19T02:03:20;15.20;99.90
16479;DHT22;8350;52.316;10.530;2023-09-19T02:05:49;15.20;99.90
16479;DHT22;8350;52.316;10.530;2023-09-19T02:08:17;15.20;99.90
16479;DHT22;8350;52.316;10.530;2023-09-19T02:10:45;15.20;99.90
16479;DHT22;8350;52.316;10.530;2023-09-19T02:13:15;15.20;99.90
16479;DHT22;8350;52.316;10.530;2023-09-19T02:15:43;15.20;99.90
16479;DHT22;8350;52.316;10.530;2023-09-19T02:18:12;15.20;99.90
16479;DHT22;8350;52.316;10.530;2023-09-19T02:20:40;15.20;99.90
16479;DHT22;8350;52.316;10.530;2023-09-19T02:23:09;15.20;99.90
16479;DHT22;8350;52.316;10.530;2023-09-19T02:25:37;15.20;99.90
16479;DHT22;8350;52.316;10.530;2023-09-19T02:28:06;15.20;99.90
16479;DHT22;8350;52.316;10.530;2023-09-19T02:30:33;15.20;99.90
16479;DHT22;8350;52.316;10.530;2023-09-19T02:33:01;15.30;99.90
16479;DHT22;8350;52.316;10.530;2023-09-19T02:35:30;15.20;99.90
16479;DHT22;8350;52.316;10.530;2023-09-19T02:38:05;15.10;99.90
16479;DHT22;8350;52.316;10.530;2023-09-19T02:40:35;15.10;99.90
16479;DHT22;8350;52.316;10.530;2023-09-19T02:43:02;15.10;99.90
16479;DHT22;8350;52.316;10.530;2023-09-19T02:45:30;15.10;99.90
16479;DHT22;8350;52.316;10.530;2023-09-19T02:47:57;15.00;99.90
16479;DHT22;8350;52.316;10.530;2023-09-19T02:50:25;15.00;99.90
16479;DHT22;8350;52.316;10.530;2023-09-19T02:52:54;15.00;99.90
16479;DHT22;8350;52.316;10.530;2023-09-19T02:55:21;15.00;99.90
16479;DHT22;8350;52.316;10.530;2023-09-19T02:57:48;15.00;99.90
16479;DHT22;8350;52.316;10.530;2023-09-19T03:00:17;15.00;99.90
16479;DHT22;8350;52.316;10.530;2023-09-19T03:02:52;15.00;99.90
16479;DHT22;8350;52.316;10.530;2023-09-19T03:05:20;14.90;99.90
16479;DHT22;8350;52.316;10.530;2023-09-19T03:07:47;14.80;99.90
16479;DHT22;8350;52.316;10.530;2023-09-19T03:10:18;14.80;99.90
16479;DHT22;8350;52.316;10.530;2023-09-19T03:12:46;14.70;99.90
16479;DHT22;8350;52.316;10.530;2023-09-19T03:15:13;14.80;99.90
16479;DHT22;8350;52.316;10.530;2023-09-19T03:17:43;14.70;99.90
16479;DHT22;8350;52.316;10.530;2023-09-19T03:20:11;14.60;99.90
16479;DHT22;8350;52.316;10.530;2023-09-19T03:22:39;14.60;99.90
16479;DHT22;8350;52.316;10.530;2023-09-19T03:25:07;14.60;99.90
16479;DHT22;8350;52.316;10.530;2023-09-19T03:27:39;14.60;99.90
16479;DHT22;8350;52.316;10.530;2023-09-19T03:30:10;14.50;99.90
16479;DHT22;8350;52.316;10.530;2023-09-19T03:32:44;14.60;99.90
16479;DHT22;8350;52.316;10.530;2023-09-19T03:35:15;14.60;99.90
16479;DHT22;8350;52.316;10.530;2023-09-19T03:37:51;14.60;99.90
16479;DHT22;8350;52.316;10.530;2023-09-19T03:40:21;14.60;99.90
16479;DHT22;8350;52.316;10.530;2023-09-19T03:42:50;14.50;99.90
16479;DHT22;8350;52.316;10.530;2023-09-19T03:45:17;14.50;99.90
16479;DHT22;8350;52.316;10.530;2023-09-19T03:47:44;14.50;99.90
16479;DHT22;8350;52.316;10.530;2023-09-19T03:50:12;14.60;99.90
16479;DHT22;8350;52.316;10.530;2023-09-19T03:52:41;14.60;99.90
16479;DHT22;8350;52.316;10.530;2023-09-19T03:55:08;14.50;99.90
16479;DHT22;8350;52.316;10.530;2023-09-19T03:57:35;14.50;99.90
16479;DHT22;8350;52.316;10.530;2023-09-19T04:00:04;14.50;99.90
16479;DHT22;8350;52.316;10.530;2023-09-19T04:02:37;14.60;99.90
16479;DHT22;8350;52.316;10.530;2023-09-19T04:05:04;14.60;99.90
16479;DHT22;8350;52.316;10.530;2023-09-19T04:07:31;14.70;99.90
16479;DHT22;8350;52.316;10.530;2023-09-19T04:09:58;14.70;99.90
16479;DHT22;8350;52.316;10.530;2023-09-19T04:12:24;14.60;99.90
16479;DHT22;8350;52.316;10.530;2023-09-19T04:14:53;14.70;99.90
16479;DHT22;8350;52.316;10.530;2023-09-19T04:17:21;14.60;99.90
16479;DHT22;8350;52.316;10.530;2023-09-19T04:19:48;14.60;99.90
16479;DHT22;8350;52.316;10.530;2023-09-19T04:22:15;14.60;99.90
16479;DHT22;8350;52.316;10.530;2023-09-19T04:24:42;14.50;99.90
16479;DHT22;8350;52.316;10.530;2023-09-19T04:27:09;14.60;99.90
16479;DHT22;8350;52.316;10.530;2023-09-19T04:29:37;14.50;99.90
16479;DHT22;8350;52.316;10.530;2023-09-19T04:32:05;14.50;99.90
16479;DHT22;8350;52.316;10.530;2023-09-19T04:34:34;14.40;99.90
16479;DHT22;8350;52.316;10.530;2023-09-19T04:37:03;14.50;99.90
16479;DHT22;8350;52.316;10.530;2023-09-19T04:39:31;14.50;99.90
16479;DHT22;8350;52.316;10.530;2023-09-19T04:41:59;14.50;99.90
16479;DHT22;8350;52.316;10.530;2023-09-19T04:44:26;14.40;99.90
16479;DHT22;8350;52.316;10.530;2023-09-19T04:46:53;14.50;99.90
16479;DHT22;8350;52.316;10.530;2023-09-19T04:49:20;14.50;99.90
16479;DHT22;8350;52.316;10.530;2023-09-19T04:51:48;14.50;99.90
16479;DHT22;8350;52.316;10.530;2023-09-19T04:54:15;14.50;99.90
16479;DHT22;8350;52.316;10.530;2023-09-19T04:56:43;14.50;99.90
16479;DHT22;8350;52.316;10.530;2023-09-19T04:59:10;14.50;99.90
16479;DHT22;8350;52.316;10.530;2023-09-19T05:01:37;14.50;99.90
16479;DHT22;8350;52.316;10.530;2023-09-19T05:04:04;14.50;99.90
16479;DHT22;8350;52.316;10.530;2023-09-19T05:06:31;14.60;99.90
16479;DHT22;8350;52.316;10.530;2023-09-19T05:09:02;14.60;99.90
16479;DHT22;8350;52.316;10.530;2023-09-19T05:11:31;14.60;99.90
16479;DHT22;8350;52.316;10.530;2023-09-19T05:14:00;14.70;99.90
16479;DHT22;8350;52.316;10.530;2023-09-19T05:16:29;14.80;99.90
16479;DHT22;8350;52.316;10.530;2023-09-19T05:18:57;14.80;99.90
16479;DHT22;8350;52.316;10.530;2023-09-19T05:21:25;14.80;99.90
16479;DHT22;8350;52.316;10.530;2023-09-19T05:23:54;14.80;99.90
16479;DHT22;8350;52.316;10.530;2023-09-19T05:26:23;14.80;99.90
16479;DHT22;8350;52.316;10.530;2023-09-19T05:28:50;14.70;99.90
16479;DHT22;8350;52.316;10.530;2023-09-19T05:31:20;14.70;99.90
16479;DHT22;8350;52.316;10.530;2023-09-19T05:33:46;14.70;99.90
16479;DHT22;8350;52.316;10.530;2023-09-19T05:36:13;14.70;99.90
16479;DHT22;8350;52.316;10.530;2023-09-19T05:38:41;14.70;99.90
16479;DHT22;8350;52.316;10.530;2023-09-19T05:41:10;14.70;99.90
16479;DHT22;8350;52.316;10.530;2023-09-19T05:43:40;14.60;99.90
16479;DHT22;8350;52.316;10.530;2023-09-19T05:46:08;14.60;99.90
16479;DHT22;8350;52.316;10.530;2023-09-19T05:48:35;14.70;99.90
16479;DHT22;8350;52.316;10.530;2023-09-19T05:51:02;14.60;99.90
16479;DHT22;8350;52.316;10.530;2023-09-19T05:53:29;14.60;99.90
16479;DHT22;8350;52.316;10.530;2023-09-19T05:55:56;14.60;99.90
16479;DHT22;8350;52.316;10.530;2023-09-19T05:58:24;14.60;99.90
16479;DHT22;8350;52.316;10.530;2023-09-19T06:00:52;14.60;99.90
16479;DHT22;8350;52.316;10.530;2023-09-19T06:03:21;14.60;99.90
16479;DHT22;8350;52.316;10.530;2023-09-19T06:05:47;14.60;99.90
16479;DHT22;8350;52.316;10.530;2023-09-19T06:08:15;14.60;99.90
16479;DHT22;8350;52.316;10.530;2023-09-19T06:10:45;14.60;99.90
16479;DHT22;8350;52.316;10.530;2023-09-19T06:13:12;14.60;99.90
16479;DHT22;8350;52.316;10.530;2023-09-19T06:15:40;14.70;99.90
16479;DHT22;8350;52.316;10.530;2023-09-19T06:18:11;14.70;99.90
16479;DHT22;8350;52.316;10.530;2023-09-19T06:20:45;14.80;99.90
16479;DHT22;8350;52.316;10.530;2023-09-19T06:23:15;15.00;99.90
16479;DHT22;8350;52.316;10.530;2023-09-19T06:25:42;15.50;99.90
16479;DHT22;8350;52.316;10.530;2023-09-19T06:28:09;15.80;99.90
16479;DHT22;8350;52.316;10.530;2023-09-19T06:30:38;16.40;99.90
16479;DHT22;8350;52.316;10.530;2023-09-19T06:33:08;17.00;99.90
16479;DHT22;8350;52.316;10.530;2023-09-19T06:35:37;17.40;99.90
16479;DHT22;8350;52.316;10.530;2023-09-19T06:38:04;17.50;99.90
16479;DHT22;8350;52.316;10.530;2023-09-19T06:40:34;17.80;99.90
16479;DHT22;8350;52.316;10.530;2023-09-19T06:43:01;17.90;99.90
16479;DHT22;8350;52.316;10.530;2023-09-19T06:45:29;18.00;99.90
16479;DHT22;8350;52.316;10.530;2023-09-19T06:47:57;17.90;99.90
16479;DHT22;8350;52.316;10.530;2023-09-19T06:50:27;17.80;99.90
16479;DHT22;8350;52.316;10.530;2023-09-19T06:53:21;17.70;99.90
16479;DHT22;8350;52.316;10.530;2023-09-19T06:55:49;17.50;99.90
16479;DHT22;8350;52.316;10.530;2023-09-19T06:58:16;17.30;99.90
16479;DHT22;8350;52.316;10.530;2023-09-19T07:00:43;17.30;99.90
16479;DHT22;8350;52.316;10.530;2023-09-19T07:03:14;17.20;99.90
16479;DHT22;8350;52.316;10.530;2023-09-19T07:05:43;17.30;99.90
16479;DHT22;8350;52.316;10.530;2023-09-19T07:08:10;17.20;99.90
16479;DHT22;8350;52.316;10.530;2023-09-19T07:10:38;17.20;99.90
16479;DHT22;8350;52.316;10.530;2023-09-19T07:13:07;17.20;99.90
16479;DHT22;8350;52.316;10.530;2023-09-19T07:15:34;17.30;99.90
16479;DHT22;8350;52.316;10.530;2023-09-19T07:18:05;17.40;99.90
16479;DHT22;8350;52.316;10.530;2023-09-19T07:20:32;17.40;99.90
16479;DHT22;8350;52.316;10.530;2023-09-19T07:23:01;17.30;99.90
16479;DHT22;8350;52.316;10.530;2023-09-19T07:25:28;17.20;99.90
16479;DHT22;8350;52.316;10.530;2023-09-19T07:27:56;17.20;99.90
16479;DHT22;8350;52.316;10.530;2023-09-19T07:30:25;17.20;99.90
16479;DHT22;8350;52.316;10.530;2023-09-19T07:32:53;17.20;99.90
16479;DHT22;8350;52.316;10.530;2023-09-19T07:35:26;17.20;99.90
16479;DHT22;8350;52.316;10.530;2023-09-19T07:37:53;17.20;99.90
16479;DHT22;8350;52.316;10.530;2023-09-19T07:40:23;17.30;99.90
16479;DHT22;8350;52.316;10.530;2023-09-19T07:42:52;17.30;99.90
16479;DHT22;8350;52.316;10.530;2023-09-19T07:45:19;17.30;99.90
16479;DHT22;8350;52.316;10.530;2023-09-19T07:47:47;17.40;99.90
16479;DHT22;8350;52.316;10.530;2023-09-19T07:50:14;17.50;99.90
16479;DHT22;8350;52.316;10.530;2023-09-19T07:52:41;17.70;99.90
16479;DHT22;8350;52.316;10.530;2023-09-19T07:55:09;17.60;99.90
16479;DHT22;8350;52.316;10.530;2023-09-19T07:57:38;17.70;99.90
16479;DHT22;8350;52.316;10.530;2023-09-19T08:00:09;17.70;99.90
16479;DHT22;8350;52.316;10.530;2023-09-19T08:02:37;17.80;99.90
16479;DHT22;8350;52.316;10.530;2023-09-19T08:05:05;17.60;99.90
16479;DHT22;8350;52.316;10.530;2023-09-19T08:07:35;17.70;99.90
16479;DHT22;8350;52.316;10.530;2023-09-19T08:10:03;17.70;99.90
16479;DHT22;8350;52.316;10.530;2023-09-19T08:12:29;17.70;99.90
16479;DHT22;8350;52.316;10.530;2023-09-19T08:15:02;17.70;99.90
16479;DHT22;8350;52.316;10.530;2023-09-19T08:17:34;17.80;99.90
16479;DHT22;8350;52.316;10.530;2023-09-19T08:20:01;17.90;99.90
16479;DHT22;8350;52.316;10.530;2023-09-19T08:22:30;17.80;99.90
16479;DHT22;8350;52.316;10.530;2023-09-19T08:24:57;17.80;99.90
16479;DHT22;8350;52.316;10.530;2023-09-19T08:27:25;17.90;99.90
16479;DHT22;8350;52.316;10.530;2023-09-19T08:29:53;18.00;99.90
16479;DHT22;8350;52.316;10.530;2023-09-19T08:32:21;18.10;99.90
16479;DHT22;8350;52.316;10.530;2023-09-19T08:34:51;18.10;99.90
16479;DHT22;8350;52.316;10.530;2023-09-19T08:37:18;17.90;99.90
16479;DHT22;8350;52.316;10.530;2023-09-19T08:39:45;17.80;99.90
16479;DHT22;8350;52.316;10.530;2023-09-19T08:42:12;17.90;99.90
16479;DHT22;8350;52.316;10.530;2023-09-19T08:44:40;18.00;99.90
16479;DHT22;8350;52.316;10.530;2023-09-19T08:47:10;17.90;99.90
16479;DHT22;8350;52.316;10.530;2023-09-19T08:49:50;17.90;99.90
16479;DHT22;8350;52.316;10.530;2023-09-19T08:52:22;17.90;99.90
16479;DHT22;8350;52.316;10.530;2023-09-19T08:54:52;17.80;99.90
16479;DHT22;8350;52.316;10.530;2023-09-19T08:57:28;17.80;99.90
16479;DHT22;8350;52.316;10.530;2023-09-19T08:59:56;18.10;99.90
16479;DHT22;8350;52.316;10.530;2023-09-19T09:02:24;18.10;99.90
16479;DHT22;8350;52.316;10.530;2023-09-19T09:04:55;18.20;99.90
16479;DHT22;8350;52.316;10.530;2023-09-19T09:07:23;18.30;99.90
16479;DHT22;8350;52.316;10.530;2023-09-19T09:09:51;18.50;99.90
16479;DHT22;8350;52.316;10.530;2023-09-19T09:12:18;18.60;99.90
16479;DHT22;8350;52.316;10.530;2023-09-19T09:14:46;18.50;99.90
16479;DHT22;8350;52.316;10.530;2023-09-19T09:17:14;18.40;99.90
16479;DHT22;8350;52.316;10.530;2023-09-19T09:19:45;18.50;99.90
16479;DHT22;8350;52.316;10.530;2023-09-19T09:22:14;18.60;99.90
16479;DHT22;8350;52.316;10.530;2023-09-19T09:24:52;18.60;99.90
16479;DHT22;8350;52.316;10.530;2023-09-19T09:27:23;18.70;99.90
16479;DHT22;8350;52.316;10.530;2023-09-19T09:29:51;18.90;99.90
16479;DHT22;8350;52.316;10.530;2023-09-19T09:32:21;18.80;99.90
16479;DHT22;8350;52.316;10.530;2023-09-19T09:34:52;18.60;99.90
16479;DHT22;8350;52.316;10.530;2023-09-19T09:40:13;18.70;99.90
16479;DHT22;8350;52.316;10.530;2023-09-19T09:43:01;18.80;99.90
16479;DHT22;8350;52.316;10.530;2023-09-19T09:45:29;18.90;99.90
16479;DHT22;8350;52.316;10.530;2023-09-19T09:48:03;19.00;99.90
16479;DHT22;8350;52.316;10.530;2023-09-19T09:50:46;19.10;99.90
16479;DHT22;8350;52.316;10.530;2023-09-19T09:53:24;19.10;99.90
16479;DHT22;8350;52.316;10.530;2023-09-19T09:56:01;19.10;99.90
16479;DHT22;8350;52.316;10.530;2023-09-19T09:58:29;19.00;99.90
16479;DHT22;8350;52.316;10.530;2023-09-19T10:00:58;19.10;99.90
16479;DHT22;8350;52.316;10.530;2023-09-19T10:03:34;19.20;99.90
16479;DHT22;8350;52.316;10.530;2023-09-19T10:06:08;19.20;99.90
16479;DHT22;8350;52.316;10.530;2023-09-19T10:09:02;19.30;99.90
16479;DHT22;8350;52.316;10.530;2023-09-19T10:11:42;19.30;99.90
16479;DHT22;8350;52.316;10.530;2023-09-19T10:14:11;19.20;99.90
16479;DHT22;8350;52.316;10.530;2023-09-19T10:16:43;19.30;99.90
16479;DHT22;8350;52.316;10.530;2023-09-19T10:19:15;19.50;99.90
16479;DHT22;8350;52.316;10.530;2023-09-19T10:21:44;19.40;99.90
16479;DHT22;8350;52.316;10.530;2023-09-19T10:24:14;19.40;99.90
16479;DHT22;8350;52.316;10.530;2023-09-19T10:26:42;19.60;99.90
16479;DHT22;8350;52.316;10.530;2023-09-19T10:29:12;19.60;99.90
16479;DHT22;8350;52.316;10.530;2023-09-19T10:31:42;19.40;99.90
16479;DHT22;8350;52.316;10.530;2023-09-19T10:37:50;19.40;99.90
16479;DHT22;8350;52.316;10.530;2023-09-19T10:40:21;19.50;99.90
16479;DHT22;8350;52.316;10.530;2023-09-19T10:42:52;19.40;99.90
16479;DHT22;8350;52.316;10.530;2023-09-19T10:45:21;19.30;99.90
16479;DHT22;8350;52.316;10.530;2023-09-19T10:47:51;19.50;99.90
16479;DHT22;8350;52.316;10.530;2023-09-19T10:50:20;19.50;99.90
16479;DHT22;8350;52.316;10.530;2023-09-19T10:52:48;19.60;99.90
16479;DHT22;8350;52.316;10.530;2023-09-19T10:55:26;19.50;99.90
16479;DHT22;8350;52.316;10.530;2023-09-19T10:57:55;19.70;99.90
16479;DHT22;8350;52.316;10.530;2023-09-19T11:00:30;19.70;99.90
16479;DHT22;8350;52.316;10.530;2023-09-19T11:03:20;19.80;99.90
16479;DHT22;8350;52.316;10.530;2023-09-19T11:06:05;19.70;99.90
16479;DHT22;8350;52.316;10.530;2023-09-19T11:08:54;19.70;99.90
16479;DHT22;8350;52.316;10.530;2023-09-19T11:11:42;19.60;99.90
16479;DHT22;8350;52.316;10.530;2023-09-19T11:14:28;19.80;99.90
16479;DHT22;8350;52.316;10.530;2023-09-19T11:20:23;19.90;99.90
16479;DHT22;8350;52.316;10.530;2023-09-19T11:23:23;19.90;99.90
16479;DHT22;8350;52.316;10.530;2023-09-19T11:25:54;19.90;99.90
16479;DHT22;8350;52.316;10.530;2023-09-19T11:28:46;19.90;99.90
16479;DHT22;8350;52.316;10.530;2023-09-19T11:34:40;19.90;99.90
16479;DHT22;8350;52.316;10.530;2023-09-19T11:40:33;19.80;99.90
16479;DHT22;8350;52.316;10.530;2023-09-19T11:43:30;19.90;99.90
16479;DHT22;8350;52.316;10.530;2023-09-19T11:46:07;19.90;99.90
16479;DHT22;8350;52.316;10.530;2023-09-19T11:48:35;20.00;99.90
16479;DHT22;8350;52.316;10.530;2023-09-19T11:51:14;19.90;99.90
16479;DHT22;8350;52.316;10.530;2023-09-19T11:53:45;20.00;99.90
16479;DHT22;8350;52.316;10.530;2023-09-19T11:56:16;20.20;99.90
16479;DHT22;8350;52.316;10.530;2023-09-19T11:58:44;20.20;99.90
16479;DHT22;8350;52.316;10.530;2023-09-19T12:01:20;20.20;99.90
16479;DHT22;8350;52.316;10.530;2023-09-19T12:03:53;20.20;99.90
16479;DHT22;8350;52.316;10.530;2023-09-19T12:06:20;20.20;99.90
16479;DHT22;8350;52.316;10.530;2023-09-19T12:08:47;20.10;99.90
16479;DHT22;8350;52.316;10.530;2023-09-19T12:11:16;20.00;99.90
16479;DHT22;8350;52.316;10.530;2023-09-19T12:13:46;19.90;99.90
16479;DHT22;8350;52.316;10.530;2023-09-19T12:16:17;19.90;99.90
16479;DHT22;8350;52.316;10.530;2023-09-19T12:18:48;20.00;99.90
16479;DHT22;8350;52.316;10.530;2023-09-19T12:21:26;20.00;99.90
16479;DHT22;8350;52.316;10.530;2023-09-19T12:24:07;20.00;99.90
16479;DHT22;8350;52.316;10.530;2023-09-19T12:26:40;19.90;99.90
16479;DHT22;8350;52.316;10.530;2023-09-19T12:29:12;20.00;99.90
16479;DHT22;8350;52.316;10.530;2023-09-19T12:31:49;20.00;99.90
16479;DHT22;8350;52.316;10.530;2023-09-19T12:34:20;19.80;99.90
16479;DHT22;8350;52.316;10.530;2023-09-19T12:36:47;19.90;99.90
16479;DHT22;8350;52.316;10.530;2023-09-19T12:39:23;20.00;99.90
16479;DHT22;8350;52.316;10.530;2023-09-19T12:41:50;19.90;99.90
16479;DHT22;8350;52.316;10.530;2023-09-19T12:44:18;19.80;99.90
16479;DHT22;8350;52.316;10.530;2023-09-19T12:46:46;19.80;99.90
16479;DHT22;8350;52.316;10.530;2023-09-19T12:49:18;19.70;99.90
16479;DHT22;8350;52.316;10.530;2023-09-19T12:51:46;19.80;99.90
16479;DHT22;8350;52.316;10.530;2023-09-19T12:54:15;19.90;99.90
16479;DHT22;8350;52.316;10.530;2023-09-19T12:56:43;20.00;99.90
16479;DHT22;8350;52.316;10.530;2023-09-19T12:59:16;19.90;99.90
16479;DHT22;8350;52.316;10.530;2023-09-19T13:01:44;19.90;99.90
16479;DHT22;8350;52.316;10.530;2023-09-19T13:04:15;19.90;99.90
16479;DHT22;8350;52.316;10.530;2023-09-19T13:06:46;20.10;99.90
16479;DHT22;8350;52.316;10.530;2023-09-19T13:09:14;20.10;99.90
16479;DHT22;8350;52.316;10.530;2023-09-19T13:11:42;20.20;99.90
16479;DHT22;8350;52.316;10.530;2023-09-19T13:14:16;20.30;99.90
16479;DHT22;8350;52.316;10.530;2023-09-19T13:17:00;20.40;99.90
16479;DHT22;8350;52.316;10.530;2023-09-19T13:19:37;20.50;99.90
16479;DHT22;8350;52.316;10.530;2023-09-19T13:22:36;20.20;99.90
16479;DHT22;8350;52.316;10.530;2023-09-19T13:25:06;20.10;99.90
16479;DHT22;8350;52.316;10.530;2023-09-19T13:27:33;20.10;99.90
16479;DHT22;8350;52.316;10.530;2023-09-19T13:30:00;20.10;99.90
16479;DHT22;8350;52.316;10.530;2023-09-19T13:32:27;20.20;99.90
16479;DHT22;8350;52.316;10.530;2023-09-19T13:34:54;20.20;99.90
16479;DHT22;8350;52.316;10.530;2023-09-19T13:37:23;20.20;99.90
16479;DHT22;8350;52.316;10.530;2023-09-19T13:39:50;20.40;99.90
16479;DHT22;8350;52.316;10.530;2023-09-19T13:42:17;20.50;99.90
16479;DHT22;8350;52.316;10.530;2023-09-19T13:44:47;20.50;99.90
16479;DHT22;8350;52.316;10.530;2023-09-19T13:47:14;20.60;99.90
16479;DHT22;8350;52.316;10.530;2023-09-19T13:49:42;20.80;99.90
16479;DHT22;8350;52.316;10.530;2023-09-19T13:52:10;20.90;99.90
16479;DHT22;8350;52.316;10.530;2023-09-19T13:54:40;20.80;99.90
16479;DHT22;8350;52.316;10.530;2023-09-19T13:57:07;20.90;99.90
16479;DHT22;8350;52.316;10.530;2023-09-19T13:59:35;21.00;99.90
16479;DHT22;8350;52.316;10.530;2023-09-19T14:02:02;20.90;99.90
16479;DHT22;8350;52.316;10.530;2023-09-19T14:04:31;20.90;99.90
16479;DHT22;8350;52.316;10.530;2023-09-19T14:07:00;21.00;99.90
16479;DHT22;8350;52.316;10.530;2023-09-19T14:09:27;21.10;99.90
16479;DHT22;8350;52.316;10.530;2023-09-19T14:11:56;21.20;99.90
16479;DHT22;8350;52.316;10.530;2023-09-19T14:14:23;21.20;99.90
16479;DHT22;8350;52.316;10.530;2023-09-19T14:16:50;21.20;99.90
16479;DHT22;8350;52.316;10.530;2023-09-19T14:19:17;21.40;99.90
16479;DHT22;8350;52.316;10.530;2023-09-19T14:21:45;21.30;99.90
16479;DHT22;8350;52.316;10.530;2023-09-19T14:24:17;21.30;99.90
16479;DHT22;8350;52.316;10.530;2023-09-19T14:26:44;21.30;99.90
16479;DHT22;8350;52.316;10.530;2023-09-19T14:29:13;21.40;99.90
16479;DHT22;8350;52.316;10.530;2023-09-19T14:31:40;21.40;99.90
16479;DHT22;8350;52.316;10.530;2023-09-19T14:34:07;21.20;99.90
16479;DHT22;8350;52.316;10.530;2023-09-19T14:36:35;21.30;99.90
16479;DHT22;8350;52.316;10.530;2023-09-19T14:39:02;21.20;99.90
16479;DHT22;8350;52.316;10.530;2023-09-19T14:41:29;21.20;99.90
16479;DHT22;8350;52.316;10.530;2023-09-19T14:43:57;21.00;99.90
16479;DHT22;8350;52.316;10.530;2023-09-19T14:46:25;21.00;99.90
16479;DHT22;8350;52.316;10.530;2023-09-19T14:48:52;20.90;99.90
16479;DHT22;8350;52.316;10.530;2023-09-19T14:51:19;20.90;99.90
16479;DHT22;8350;52.316;10.530;2023-09-19T14:53:46;20.90;99.90
16479;DHT22;8350;52.316;10.530;2023-09-19T14:56:14;21.00;99.90
16479;DHT22;8350;52.316;10.530;2023-09-19T14:58:44;21.00;99.90
16479;DHT22;8350;52.316;10.530;2023-09-19T15:01:13;21.00;99.90
16479;DHT22;8350;52.316;10.530;2023-09-19T15:03:42;21.00;99.90
16479;DHT22;8350;52.316;10.530;2023-09-19T15:06:10;20.90;99.90
16479;DHT22;8350;52.316;10.530;2023-09-19T15:08:40;20.90;99.90
16479;DHT22;8350;52.316;10.530;2023-09-19T15:11:11;20.80;99.90
16479;DHT22;8350;52.316;10.530;2023-09-19T15:13:38;20.80;99.90
16479;DHT22;8350;52.316;10.530;2023-09-19T15:16:06;20.70;99.90
16479;DHT22;8350;52.316;10.530;2023-09-19T15:18:35;20.70;99.90
16479;DHT22;8350;52.316;10.530;2023-09-19T15:21:05;20.70;99.90
16479;DHT22;8350;52.316;10.530;2023-09-19T15:23:33;20.60;99.90
16479;DHT22;8350;52.316;10.530;2023-09-19T15:26:00;20.50;99.90
16479;DHT22;8350;52.316;10.530;2023-09-19T15:28:28;20.40;99.90
16479;DHT22;8350;52.316;10.530;2023-09-19T15:30:59;20.40;99.90
16479;DHT22;8350;52.316;10.530;2023-09-19T15:33:27;20.50;99.90
16479;DHT22;8350;52.316;10.530;2023-09-19T15:36:05;20.50;99.90
16479;DHT22;8350;52.316;10.530;2023-09-19T15:38:55;20.50;99.90
16479;DHT22;8350;52.316;10.530;2023-09-19T15:41:23;20.50;99.90
16479;DHT22;8350;52.316;10.530;2023-09-19T15:43:50;20.50;99.90
16479;DHT22;8350;52.316;10.530;2023-09-19T15:46:17;20.60;99.90
16479;DHT22;8350;52.316;10.530;2023-09-19T15:48:44;20.50;99.90
16479;DHT22;8350;52.316;10.530;2023-09-19T15:51:13;20.50;99.90
16479;DHT22;8350;52.316;10.530;2023-09-19T15:53:43;20.40;99.90
16479;DHT22;8350;52.316;10.530;2023-09-19T15:56:11;20.40;99.90
16479;DHT22;8350;52.316;10.530;2023-09-19T15:58:39;20.40;99.90
16479;DHT22;8350;52.316;10.530;2023-09-19T16:01:06;20.30;99.90
16479;DHT22;8350;52.316;10.530;2023-09-19T16:03:35;20.20;99.90
16479;DHT22;8350;52.316;10.530;2023-09-19T16:06:08;20.20;99.90
16479;DHT22;8350;52.316;10.530;2023-09-19T16:08:40;20.20;99.90